Time;durP1;ratioP1;P1;durP2;ratioP2;P2;SDS_P1;SDS_P2;PMS_P1;PMS_P2;Temp;Humidity;BMP_temperature;BMP_pressure;BME280_temperature;BME280_humidity;BME280_pressure;Samples;Min_cycle;Max_cycle;Signal;HPM_P1;HPM_P2
2022/02/22 00:01:42;;;;;;;8.80;2.00;;;8.50;78.70;;;;;;5012207;28;20493;-78
2022/02/22 00:04:08;;;;;;;8.07;1.80;;;8.50;78.60;;;;;;5012551;28;20029;-78
2022/02/22 00:06:34;;;;;;;10.18;2.28;;;8.50;78.50;;;;;;5010944;28;20029;-77
2022/02/22 00:09:00;;;;;;;8.15;2.17;;;8.50;78.60;;;;;;5012054;28;20042;-78
2022/02/22 00:11:26;;;;;;;7.47;1.55;;;8.50;78.40;;;;;;5013033;28;20517;-77
2022/02/22 00:13:53;;;;;;;9.38;2.47;;;8.50;78.30;;;;;;5013108;28;20114;-80
2022/02/22 00:16:19;;;;;;;11.15;2.47;;;8.50;78.80;;;;;;5010583;28;20025;-78
2022/02/22 00:18:45;;;;;;;13.20;2.78;;;8.50;79.50;;;;;;5009004;28;20030;-78
2022/02/22 00:21:12;;;;;;;12.23;2.38;;;8.50;80.10;;;;;;5008742;28;20030;-79
2022/02/22 00:23:38;;;;;;;10.45;1.90;;;8.50;80.70;;;;;;5012694;28;20482;-78
2022/02/22 00:26:04;;;;;;;10.23;2.63;;;8.60;80.40;;;;;;5014543;28;20025;-79
2022/02/22 00:28:30;;;;;;;9.45;2.17;;;8.60;80.40;;;;;;5007413;28;20534;-80
2022/02/22 00:30:56;;;;;;;14.00;3.03;;;8.70;79.60;;;;;;5007753;28;20030;-79
2022/02/22 00:33:21;;;;;;;7.45;2.08;;;8.60;79.20;;;;;;5009253;28;20034;-79
2022/02/22 00:35:47;;;;;;;11.27;2.30;;;8.60;79.20;;;;;;5002728;28;20018;-80
2022/02/22 00:38:13;;;;;;;7.13;1.80;;;8.50;79.40;;;;;;5010419;28;20030;-80
2022/02/22 00:40:39;;;;;;;12.30;2.67;;;8.50;79.10;;;;;;5009280;28;20112;-80
2022/02/22 00:43:06;;;;;;;11.27;2.45;;;8.50;79.20;;;;;;5008557;28;20081;-79
2022/02/22 00:45:32;;;;;;;12.98;2.20;;;8.50;81.20;;;;;;5002008;28;20026;-79
2022/02/22 00:47:57;;;;;;;6.85;1.92;;;8.40;80.50;;;;;;5009248;28;20033;-81
2022/02/22 00:50:23;;;;;;;17.90;3.22;;;8.40;79.60;;;;;;5011595;28;20041;-78
2022/02/22 00:52:49;;;;;;;10.57;2.08;;;8.40;81.00;;;;;;5012021;28;20053;-78
2022/02/22 00:55:15;;;;;;;13.68;2.25;;;8.30;80.20;;;;;;5011651;28;20034;-79
2022/02/22 00:57:43;;;;;;;15.20;2.70;;;8.30;80.60;;;;;;5009998;28;20434;-78
2022/02/22 01:00:09;;;;;;;12.60;2.08;;;8.30;81.40;;;;;;5009123;28;20907;-78
2022/02/22 01:02:35;;;;;;;22.17;3.53;;;8.30;81.60;;;;;;5008495;28;20395;-78
2022/02/22 01:05:01;;;;;;;11.60;2.10;;;8.30;83.40;;;;;;5008453;28;20034;-78
2022/02/22 01:07:26;;;;;;;15.52;2.55;;;8.30;82.00;;;;;;5010704;28;20511;-78
2022/02/22 01:09:52;;;;;;;12.27;2.65;;;8.30;82.30;;;;;;5011060;28;20084;-79
2022/02/22 01:12:18;;;;;;;8.27;2.25;;;8.20;82.60;;;;;;5008475;28;20034;-78
2022/02/22 01:14:45;;;;;;;13.57;2.35;;;8.30;82.40;;;;;;5011725;28;20049;-78
2022/02/22 01:17:11;;;;;;;14.23;2.92;;;8.30;82.30;;;;;;5010780;28;20034;-80
2022/02/22 01:19:37;;;;;;;11.35;2.08;;;8.40;83.30;;;;;;5008734;28;20045;-79
2022/02/22 01:22:03;;;;;;;9.52;2.33;;;8.40;82.50;;;;;;5009674;28;20033;-79
2022/02/22 01:24:29;;;;;;;9.75;1.95;;;8.50;82.50;;;;;;5010920;28;20014;-77
2022/02/22 01:26:54;;;;;;;12.48;2.95;;;8.50;82.40;;;;;;5010555;28;20029;-78
2022/02/22 01:29:21;;;;;;;13.98;2.78;;;8.50;82.30;;;;;;5002955;28;20057;-77
2022/02/22 01:31:46;;;;;;;11.85;2.53;;;8.50;81.30;;;;;;5005817;28;20426;-77
2022/02/22 01:34:12;;;;;;;13.30;2.60;;;8.40;81.50;;;;;;5011593;28;20025;-77
2022/02/22 01:36:38;;;;;;;9.10;2.42;;;8.40;81.50;;;;;;5007519;28;20057;-78
2022/02/22 01:39:04;;;;;;;10.40;2.30;;;8.40;82.20;;;;;;4998210;28;20035;-78
2022/02/22 01:41:32;;;;;;;13.20;2.65;;;8.40;82.10;;;;;;5009315;28;20040;-78
2022/02/22 01:43:58;;;;;;;11.32;2.42;;;8.30;82.60;;;;;;5007622;28;20046;-78
2022/02/22 01:46:24;;;;;;;7.60;1.65;;;8.40;82.80;;;;;;5006714;28;20131;-79
2022/02/22 01:48:50;;;;;;;8.30;2.10;;;8.40;82.20;;;;;;5005315;28;20034;-78
2022/02/22 01:51:16;;;;;;;11.00;2.60;;;8.40;82.00;;;;;;5011272;28;20034;-80
2022/02/22 01:53:41;;;;;;;9.40;1.50;;;8.50;81.80;;;;;;5006695;28;20034;-78
2022/02/22 01:56:08;;;;;;;10.30;2.30;;;8.50;82.00;;;;;;4998579;28;20502;-79
2022/02/22 01:58:35;;;;;;;7.30;1.95;;;8.50;81.70;;;;;;5006390;28;20407;-78
2022/02/22 02:01:00;;;;;;;13.23;2.50;;;8.50;83.10;;;;;;5008052;28;20040;-78
2022/02/22 02:03:26;;;;;;;12.98;2.53;;;8.50;83.60;;;;;;5009369;28;20112;-80
2022/02/22 02:05:52;;;;;;;9.52;2.30;;;8.50;82.60;;;;;;5006646;28;20030;-78
2022/02/22 02:08:18;;;;;;;8.18;2.58;;;8.50;83.00;;;;;;5005900;28;20042;-78
2022/02/22 02:10:44;;;;;;;10.45;2.38;;;8.60;83.50;;;;;;5006729;28;20022;-78
2022/02/22 02:13:10;;;;;;;13.82;2.97;;;8.60;83.20;;;;;;5008255;28;20041;-80
2022/02/22 02:15:36;;;;;;;12.50;2.38;;;8.70;83.50;;;;;;5008464;28;20060;-78
2022/02/22 02:18:02;;;;;;;10.95;2.20;;;8.60;83.10;;;;;;5008950;28;20077;-77
2022/02/22 02:20:27;;;;;;;9.75;2.40;;;8.70;82.70;;;;;;5001701;28;20027;-80
2022/02/22 02:22:56;;;;;;;13.60;2.65;;;8.70;83.80;;;;;;5005485;28;20081;-80
2022/02/22 02:25:22;;;;;;;7.97;2.33;;;8.70;83.30;;;;;;5008583;28;20083;-79
2022/02/22 02:27:48;;;;;;;13.02;2.47;;;8.80;82.90;;;;;;5009930;28;20048;-80
2022/02/22 02:30:15;;;;;;;13.88;2.95;;;8.80;83.10;;;;;;5001550;28;20030;-80
2022/02/22 02:32:41;;;;;;;12.13;2.58;;;8.80;83.60;;;;;;5009162;28;20582;-80
2022/02/22 02:35:07;;;;;;;10.65;2.67;;;8.80;83.50;;;;;;5010082;28;20130;-79
2022/02/22 02:37:35;;;;;;;10.35;2.38;;;8.80;83.90;;;;;;5004766;28;20022;-79
2022/02/22 02:40:03;;;;;;;10.82;2.50;;;8.80;83.60;;;;;;5003935;28;20475;-79
2022/02/22 02:42:28;;;;;;;14.57;2.33;;;8.80;84.10;;;;;;5011296;28;20026;-80
2022/02/22 02:44:54;;;;;;;14.20;2.50;;;8.80;83.40;;;;;;5011490;28;20045;-79
2022/02/22 02:47:20;;;;;;;12.10;2.70;;;8.90;83.50;;;;;;5005767;28;20048;-80
2022/02/22 02:49:45;;;;;;;13.90;2.55;;;8.90;83.10;;;;;;5014038;28;20099;-79
2022/02/22 02:52:11;;;;;;;9.90;2.13;;;8.90;83.60;;;;;;5011017;28;20034;-79
2022/02/22 02:54:37;;;;;;;11.63;2.35;;;9.00;83.60;;;;;;5012312;28;20050;-80
2022/02/22 02:57:03;;;;;;;9.20;2.20;;;9.00;83.00;;;;;;5010538;28;20061;-80
2022/02/22 02:59:29;;;;;;;14.30;2.47;;;9.00;83.50;;;;;;5010202;28;20507;-80
2022/02/22 03:01:55;;;;;;;12.38;2.78;;;9.00;83.60;;;;;;5009345;28;20495;-81
2022/02/22 03:04:21;;;;;;;12.75;2.67;;;9.00;84.10;;;;;;5009070;28;20478;-80
2022/02/22 03:06:47;;;;;;;9.90;2.30;;;9.00;85.30;;;;;;5005173;28;20032;-79
2022/02/22 03:09:13;;;;;;;8.50;2.17;;;9.00;84.70;;;;;;5013466;28;20060;-80
2022/02/22 03:11:38;;;;;;;9.25;2.50;;;9.00;83.80;;;;;;5012238;28;20014;-79
2022/02/22 03:14:06;;;;;;;8.57;2.15;;;9.10;83.60;;;;;;5011400;28;20104;-80
2022/02/22 03:16:32;;;;;;;13.73;2.72;;;9.10;83.50;;;;;;5011424;28;20049;-80
2022/02/22 03:18:57;;;;;;;7.22;1.90;;;9.10;83.40;;;;;;5012237;28;20057;-80
2022/02/22 03:21:23;;;;;;;8.45;2.13;;;9.20;83.30;;;;;;5011615;28;20447;-79
2022/02/22 03:23:49;;;;;;;10.90;2.42;;;9.20;83.50;;;;;;5013249;28;20022;-79
2022/02/22 03:26:15;;;;;;;12.35;2.63;;;9.20;83.20;;;;;;5009430;28;20551;-80
2022/02/22 03:28:40;;;;;;;9.43;1.92;;;9.20;83.30;;;;;;5012187;28;20045;-80
2022/02/22 03:31:06;;;;;;;10.77;2.30;;;9.20;83.30;;;;;;5012425;28;20069;-80
2022/02/22 03:33:33;;;;;;;8.32;2.08;;;9.20;83.40;;;;;;5007506;28;20487;-79
2022/02/22 03:36:00;;;;;;;10.57;2.15;;;9.20;83.20;;;;;;5007585;28;20057;-79
2022/02/22 03:38:26;;;;;;;12.63;2.35;;;9.30;83.30;;;;;;5013318;28;20018;-78
2022/02/22 03:40:51;;;;;;;6.53;2.03;;;9.20;83.00;;;;;;5011501;28;20108;-78
2022/02/22 03:43:17;;;;;;;7.13;1.48;;;9.30;83.10;;;;;;5011026;28;20560;-79
2022/02/22 03:45:43;;;;;;;7.15;2.05;;;9.30;83.10;;;;;;5006901;28;20033;-78
2022/02/22 03:48:08;;;;;;;14.60;2.10;;;9.30;83.40;;;;;;5007376;28;20042;-79
2022/02/22 03:50:35;;;;;;;9.60;1.98;;;9.30;83.90;;;;;;5012976;28;20071;-79
2022/02/22 03:53:00;;;;;;;7.15;1.70;;;9.30;83.20;;;;;;5011357;28;20446;-79
2022/02/22 03:55:26;;;;;;;7.35;1.75;;;9.30;83.30;;;;;;5010187;28;20022;-79
2022/02/22 03:57:52;;;;;;;7.90;1.90;;;9.30;83.30;;;;;;5009679;28;20037;-79
2022/02/22 04:00:21;;;;;;;7.88;1.80;;;9.30;83.40;;;;;;5012440;28;20033;-78
2022/02/22 04:02:48;;;;;;;10.63;2.22;;;9.30;84.10;;;;;;5002784;28;20041;-79
2022/02/22 04:05:15;;;;;;;7.68;2.17;;;9.40;83.50;;;;;;5008844;28;20029;-79
2022/02/22 04:07:41;;;;;;;9.75;2.10;;;9.40;83.30;;;;;;5011287;28;20037;-79
2022/02/22 04:10:08;;;;;;;12.95;2.50;;;9.30;83.40;;;;;;5012737;28;20030;-80
2022/02/22 04:12:34;;;;;;;11.38;2.10;;;9.40;83.80;;;;;;5010471;28;20084;-80
2022/02/22 04:15:00;;;;;;;13.52;2.55;;;9.30;83.90;;;;;;5012065;28;20030;-79
2022/02/22 04:17:26;;;;;;;7.85;1.73;;;9.40;83.90;;;;;;5008955;28;20049;-80
2022/02/22 04:19:52;;;;;;;10.25;2.05;;;9.40;83.80;;;;;;5011025;28;20053;-80
2022/02/22 04:22:22;;;;;;;15.18;2.28;;;9.40;84.30;;;;;;5011015;28;20133;-79
2022/02/22 04:24:47;;;;;;;11.57;2.50;;;9.40;84.20;;;;;;5009875;28;20041;-78
2022/02/22 04:27:13;;;;;;;15.48;2.53;;;9.40;84.60;;;;;;5009942;28;20026;-79
2022/02/22 04:29:39;;;;;;;9.13;1.98;;;9.40;84.30;;;;;;5011067;28;20445;-79
2022/02/22 04:32:06;;;;;;;10.18;2.60;;;9.40;84.50;;;;;;5010802;28;20069;-79
2022/02/22 04:34:32;;;;;;;5.40;1.42;;;9.40;84.90;;;;;;5011122;28;20034;-80
2022/02/22 04:36:57;;;;;;;7.20;1.65;;;9.40;84.50;;;;;;5010441;28;20398;-79
2022/02/22 04:39:23;;;;;;;7.15;1.77;;;9.40;84.50;;;;;;5002534;28;20032;-79
2022/02/22 04:41:50;;;;;;;11.18;2.10;;;9.40;84.40;;;;;;5011266;28;20018;-80
2022/02/22 04:44:17;;;;;;;12.65;2.38;;;9.40;84.30;;;;;;5007418;28;20384;-79
2022/02/22 04:46:42;;;;;;;8.77;2.60;;;9.40;85.10;;;;;;5002526;28;20046;-79
2022/02/22 04:49:09;;;;;;;13.32;2.58;;;9.40;85.50;;;;;;5010755;28;20100;-81
2022/02/22 04:51:42;;;;;;;9.90;2.00;;;9.40;85.50;;;;;;5008444;28;20068;-81
2022/02/22 04:54:09;;;;;;;11.60;2.45;;;9.40;85.20;;;;;;5011873;28;20030;-81
2022/02/22 04:56:35;;;;;;;7.75;2.53;;;9.40;85.50;;;;;;4996272;28;20030;-82
2022/02/22 04:59:01;;;;;;;12.82;2.45;;;9.40;86.60;;;;;;5011429;28;20064;-81
2022/02/22 05:01:27;;;;;;;11.85;2.50;;;9.40;85.50;;;;;;5010675;28;20386;-81
2022/02/22 05:03:52;;;;;;;12.20;2.25;;;9.40;86.70;;;;;;5007912;28;20108;-81
2022/02/22 05:06:18;;;;;;;14.88;2.92;;;9.50;86.40;;;;;;5010651;28;21198;-79
2022/02/22 05:08:44;;;;;;;15.75;2.80;;;9.40;88.80;;;;;;5008203;28;20033;-79
2022/02/22 05:11:10;;;;;;;12.43;2.65;;;9.40;86.90;;;;;;5011692;28;20483;-80
2022/02/22 05:13:36;;;;;;;14.02;2.85;;;9.40;87.60;;;;;;5010418;28;20518;-79
2022/02/22 05:16:03;;;;;;;15.23;2.58;;;9.40;88.60;;;;;;5010768;28;20018;-79
2022/02/22 05:18:29;;;;;;;19.35;3.03;;;9.50;89.20;;;;;;5008953;28;20117;-80
2022/02/22 05:20:55;;;;;;;11.23;2.63;;;9.40;88.30;;;;;;5011383;28;20354;-80
2022/02/22 05:23:32;;;;;;;18.13;3.47;;;9.50;87.60;;;;;;4997297;28;20042;-80
2022/02/22 05:25:58;;;;;;;14.75;2.50;;;9.50;90.10;;;;;;5010662;28;20018;-80
2022/02/22 05:28:26;;;;;;;11.65;2.58;;;9.50;88.70;;;;;;5010241;28;20041;-78
2022/02/22 05:30:52;;;;;;;13.00;2.90;;;9.50;88.00;;;;;;5001007;28;20029;-79
2022/02/22 05:33:18;;;;;;;11.82;2.30;;;9.50;88.60;;;;;;5011168;28;20029;-79
2022/02/22 05:35:45;;;;;;;13.50;1.83;;;9.50;88.30;;;;;;5003799;28;20025;-79
2022/02/22 05:38:11;;;;;;;16.95;2.58;;;9.50;87.60;;;;;;5008868;28;20096;-80
2022/02/22 05:40:37;;;;;;;16.42;2.58;;;9.50;89.50;;;;;;5010004;28;20494;-79
2022/02/22 05:43:02;;;;;;;14.25;3.20;;;9.40;87.80;;;;;;5009941;28;20030;-79
2022/02/22 05:45:28;;;;;;;17.20;2.58;;;9.30;88.50;;;;;;5002929;28;20022;-79
2022/02/22 05:47:54;;;;;;;13.48;2.30;;;9.30;87.80;;;;;;5009129;28;20030;-79
2022/02/22 05:50:19;;;;;;;17.42;2.92;;;9.30;89.30;;;;;;5008545;28;20105;-78
2022/02/22 05:52:45;;;;;;;13.52;2.72;;;9.30;90.80;;;;;;5010900;28;20073;-78
2022/02/22 05:55:11;;;;;;;9.65;2.45;;;9.30;90.00;;;;;;5006618;28;20034;-79
2022/02/22 05:57:38;;;;;;;11.82;2.80;;;9.20;89.90;;;;;;5002128;28;20099;-79
2022/02/22 06:00:06;;;;;;;12.32;2.72;;;9.20;90.00;;;;;;5007200;28;20029;-79
2022/02/22 06:02:32;;;;;;;12.85;2.38;;;9.30;90.10;;;;;;5006325;28;20029;-78
2022/02/22 06:04:58;;;;;;;9.32;1.98;;;9.40;89.60;;;;;;5005467;28;20026;-79
2022/02/22 06:07:24;;;;;;;11.75;2.50;;;9.40;89.80;;;;;;5003472;28;20042;-79
2022/02/22 06:09:49;;;;;;;17.77;2.55;;;9.40;89.80;;;;;;5004748;28;20026;-80
2022/02/22 06:12:15;;;;;;;16.65;2.75;;;9.40;89.80;;;;;;5004894;28;20018;-78
2022/02/22 06:14:40;;;;;;;17.52;2.35;;;9.40;89.10;;;;;;4999778;28;20668;-79
2022/02/22 06:17:06;;;;;;;17.98;3.03;;;9.40;89.90;;;;;;5013093;28;20446;-79
2022/02/22 06:19:32;;;;;;;10.27;2.05;;;9.40;90.30;;;;;;5014414;28;20033;-80
2022/02/22 06:21:57;;;;;;;17.75;2.80;;;9.50;90.10;;;;;;5009809;28;20482;-81
2022/02/22 06:24:23;;;;;;;8.05;2.22;;;9.50;90.30;;;;;;5011349;28;20053;-79
2022/02/22 06:26:49;;;;;;;9.70;2.13;;;9.50;90.10;;;;;;5014855;28;20026;-80
2022/02/22 06:29:15;;;;;;;17.17;3.55;;;9.50;90.00;;;;;;5010895;28;20120;-80
2022/02/22 06:31:40;;;;;;;19.77;3.33;;;9.50;89.90;;;;;;5009017;28;20451;-80
2022/02/22 06:34:06;;;;;;;17.80;3.30;;;9.50;89.90;;;;;;5007341;28;20033;-80
2022/02/22 06:36:33;;;;;;;15.07;2.80;;;9.60;90.50;;;;;;5008792;28;20080;-80
2022/02/22 06:39:00;;;;;;;12.48;2.33;;;9.60;90.80;;;;;;4999962;28;20034;-79
2022/02/22 06:41:26;;;;;;;11.05;1.98;;;9.60;90.40;;;;;;5013018;28;20021;-80
2022/02/22 06:43:52;;;;;;;15.32;2.53;;;9.60;90.20;;;;;;5012663;28;20410;-79
2022/02/22 06:46:17;;;;;;;16.92;2.85;;;9.70;91.50;;;;;;5011360;28;20025;-80
2022/02/22 06:48:43;;;;;;;12.55;2.67;;;9.70;91.00;;;;;;5009445;28;20041;-80
2022/02/22 06:51:09;;;;;;;10.85;2.10;;;9.70;90.90;;;;;;5009996;28;20484;-80
2022/02/22 06:53:35;;;;;;;15.45;2.38;;;9.70;90.90;;;;;;4997441;28;20497;-80
2022/02/22 06:56:02;;;;;;;11.95;2.33;;;9.80;91.30;;;;;;5002489;28;20018;-81
2022/02/22 06:58:28;;;;;;;15.43;2.78;;;9.80;91.10;;;;;;5008362;28;20140;-80
2022/02/22 07:00:55;;;;;;;15.02;2.60;;;9.80;91.30;;;;;;5012445;28;20110;-78
2022/02/22 07:03:22;;;;;;;13.23;2.45;;;9.80;91.30;;;;;;5012879;28;20026;-78
2022/02/22 07:05:48;;;;;;;12.80;2.30;;;9.80;91.10;;;;;;5013293;28;20116;-80
2022/02/22 07:08:14;;;;;;;17.10;2.42;;;9.80;91.80;;;;;;5014439;28;20168;-80
2022/02/22 07:10:40;;;;;;;18.10;2.65;;;9.80;91.20;;;;;;5012887;28;20057;-80
2022/02/22 07:13:06;;;;;;;22.27;3.08;;;9.80;91.80;;;;;;5012925;28;20026;-79
2022/02/22 07:15:32;;;;;;;11.32;2.47;;;9.80;91.60;;;;;;5012175;28;20482;-79
2022/02/22 07:18:02;;;;;;;15.80;3.15;;;9.80;92.00;;;;;;5012302;28;20030;-79
2022/02/22 07:20:28;;;;;;;16.45;2.75;;;9.80;92.20;;;;;;5012959;28;20151;-79
2022/02/22 07:22:57;;;;;;;13.93;2.85;;;9.90;92.70;;;;;;5005751;28;20557;-79
2022/02/22 07:25:24;;;;;;;11.43;2.38;;;9.90;92.60;;;;;;5010089;28;20036;-79
2022/02/22 07:27:50;;;;;;;20.92;2.83;;;9.90;91.80;;;;;;5012903;28;20033;-79
2022/02/22 07:30:18;;;;;;;12.68;2.70;;;10.00;92.60;;;;;;5013844;28;20383;-78
2022/02/22 07:32:45;;;;;;;17.58;3.55;;;10.00;92.80;;;;;;5013120;28;20054;-79
2022/02/22 07:35:11;;;;;;;13.43;2.60;;;10.00;92.30;;;;;;4999757;28;20034;-77
2022/02/22 07:37:38;;;;;;;15.13;2.90;;;10.10;92.80;;;;;;5011639;28;20021;-76
2022/02/22 07:40:05;;;;;;;16.05;2.65;;;10.10;92.00;;;;;;5011805;28;20061;-77
2022/02/22 07:42:30;;;;;;;11.82;3.08;;;10.10;92.20;;;;;;5013517;28;20021;-77
2022/02/22 07:44:56;;;;;;;11.07;2.60;;;10.20;92.40;;;;;;5012174;28;20781;-76
2022/02/22 07:47:21;;;;;;;16.23;2.70;;;10.20;91.80;;;;;;5013727;28;20038;-75
2022/02/22 07:49:47;;;;;;;15.73;2.78;;;10.20;91.80;;;;;;5013176;28;20030;-75
2022/02/22 07:52:13;;;;;;;13.75;2.45;;;10.30;93.00;;;;;;5013170;28;20056;-77
2022/02/22 07:54:38;;;;;;;11.45;2.17;;;10.30;92.70;;;;;;5013278;28;20034;-75
2022/02/22 07:57:04;;;;;;;13.68;2.47;;;10.40;92.90;;;;;;5013348;28;20030;-75
2022/02/22 07:59:30;;;;;;;14.60;2.40;;;10.40;92.90;;;;;;5013299;28;20022;-76
2022/02/22 08:01:56;;;;;;;12.65;1.85;;;10.50;92.40;;;;;;5013735;28;20029;-76
2022/02/22 08:04:26;;;;;;;18.10;2.65;;;10.40;92.20;;;;;;5013060;28;20062;-76
2022/02/22 08:06:53;;;;;;;13.32;2.65;;;10.50;92.20;;;;;;5013288;28;20121;-75
2022/02/22 08:09:19;;;;;;;21.42;3.00;;;10.50;93.10;;;;;;5012969;28;20025;-76
2022/02/22 08:11:45;;;;;;;16.40;2.70;;;10.50;93.20;;;;;;5013206;28;20025;-76
2022/02/22 08:14:11;;;;;;;18.80;2.90;;;10.60;92.80;;;;;;5013774;28;20038;-75
2022/02/22 08:16:37;;;;;;;16.35;3.00;;;10.50;92.90;;;;;;5012976;28;20409;-77
2022/02/22 08:19:02;;;;;;;11.18;2.60;;;10.60;93.50;;;;;;5010495;28;20034;-77
2022/02/22 08:21:28;;;;;;;14.05;2.75;;;10.60;93.70;;;;;;5012668;28;20617;-74
2022/02/22 08:23:54;;;;;;;14.57;2.67;;;10.60;93.90;;;;;;5007084;28;20037;-78
2022/02/22 08:26:19;;;;;;;14.82;2.75;;;10.70;94.30;;;;;;5014031;28;20145;-77
2022/02/22 08:28:46;;;;;;;15.75;3.05;;;10.70;93.60;;;;;;5017164;28;20033;-77
2022/02/22 08:31:12;;;;;;;14.13;2.63;;;10.70;93.80;;;;;;5007623;28;20511;-77
2022/02/22 08:33:38;;;;;;;15.90;2.72;;;10.80;93.80;;;;;;5009413;28;20037;-77
2022/02/22 08:36:04;;;;;;;11.52;2.03;;;10.80;93.20;;;;;;4996269;28;20027;-77
2022/02/22 08:38:29;;;;;;;14.15;2.72;;;10.80;92.80;;;;;;5010381;28;20434;-75
2022/02/22 08:40:55;;;;;;;11.07;2.40;;;10.90;93.40;;;;;;5005063;28;20046;-81
2022/02/22 08:43:21;;;;;;;15.30;2.40;;;10.90;94.00;;;;;;5004715;28;20038;-78
2022/02/22 08:45:47;;;;;;;10.48;2.35;;;10.90;93.80;;;;;;5007995;28;20022;-78
2022/02/22 08:48:13;;;;;;;15.50;2.65;;;10.90;93.20;;;;;;5003770;28;20157;-78
2022/02/22 08:50:40;;;;;;;14.90;2.83;;;11.00;93.50;;;;;;4983913;28;20222;-78
2022/02/22 08:53:06;;;;;;;18.75;3.53;;;11.00;93.60;;;;;;5008932;28;20088;-79
2022/02/22 08:55:32;;;;;;;10.43;2.25;;;11.00;93.40;;;;;;5007426;28;20108;-79
2022/02/22 08:57:58;;;;;;;14.10;2.45;;;11.00;93.40;;;;;;5000673;28;20130;-79
2022/02/22 09:00:25;;;;;;;10.43;2.75;;;11.00;93.30;;;;;;5008839;28;20033;-80
2022/02/22 09:02:53;;;;;;;8.50;2.08;;;11.10;94.50;;;;;;4999978;28;20367;-80
2022/02/22 09:05:19;;;;;;;10.57;2.47;;;11.10;94.20;;;;;;4995548;28;20029;-77
2022/02/22 09:07:45;;;;;;;11.50;2.53;;;11.10;93.70;;;;;;5001270;28;20127;-79
2022/02/22 09:10:13;;;;;;;12.45;2.67;;;11.10;93.00;;;;;;5007675;28;20030;-79
2022/02/22 09:12:40;;;;;;;12.18;2.80;;;11.10;94.00;;;;;;5008014;28;20096;-80
2022/02/22 09:15:07;;;;;;;11.05;2.60;;;11.20;94.40;;;;;;5007062;28;20033;-79
2022/02/22 09:17:33;;;;;;;8.32;1.95;;;11.20;94.60;;;;;;5010184;28;20030;-80
2022/02/22 09:19:59;;;;;;;8.48;1.85;;;11.20;95.30;;;;;;5007175;28;20026;-81
2022/02/22 09:22:24;;;;;;;10.35;2.40;;;11.20;94.50;;;;;;5005703;28;20080;-81
2022/02/22 09:24:50;;;;;;;11.20;2.20;;;11.30;93.80;;;;;;5007595;28;20022;-81
2022/02/22 09:27:16;;;;;;;8.43;2.22;;;11.30;94.10;;;;;;5007930;28;20034;-80
2022/02/22 09:29:41;;;;;;;11.60;2.20;;;11.30;94.00;;;;;;4997882;28;20089;-81
2022/02/22 09:32:07;;;;;;;8.95;2.33;;;11.40;94.30;;;;;;5008631;28;20049;-79
2022/02/22 09:34:33;;;;;;;11.05;2.42;;;11.50;93.50;;;;;;5001416;28;20089;-81
2022/02/22 09:37:03;;;;;;;9.63;2.35;;;11.60;93.80;;;;;;5008797;28;20083;-81
2022/02/22 09:39:30;;;;;;;7.03;1.70;;;11.60;94.00;;;;;;5008106;28;20037;-81
2022/02/22 09:41:55;;;;;;;7.10;1.80;;;11.70;94.00;;;;;;5007388;28;20033;-82
2022/02/22 09:44:21;;;;;;;9.98;2.20;;;11.80;93.70;;;;;;5010547;28;20107;-82
2022/02/22 09:46:47;;;;;;;9.63;2.28;;;11.90;93.80;;;;;;5007693;28;20079;-78
2022/02/22 09:49:13;;;;;;;10.13;1.77;;;12.00;93.50;;;;;;5006591;28;20108;-74
2022/02/22 09:51:39;;;;;;;8.75;1.77;;;12.10;93.30;;;;;;5008100;28;20026;-79
2022/02/22 09:54:05;;;;;;;10.00;1.95;;;12.20;92.80;;;;;;5012289;28;20038;-76
2022/02/22 09:56:30;;;;;;;9.85;1.65;;;12.30;92.90;;;;;;5014131;28;20030;-78
2022/02/22 09:58:56;;;;;;;11.73;1.83;;;12.30;92.80;;;;;;5010278;28;20097;-82
2022/02/22 10:01:23;;;;;;;4.95;1.83;;;12.30;92.60;;;;;;5004717;28;20026;-83
2022/02/22 10:03:59;;;;;;;7.38;1.75;;;12.40;92.60;;;;;;5003473;28;20030;-83
2022/02/22 10:06:26;;;;;;;9.27;1.50;;;12.40;92.30;;;;;;5007009;28;20085;-84
2022/02/22 10:08:56;;;;;;;6.47;1.70;;;12.40;92.30;;;;;;5012742;28;20038;-83
2022/02/22 10:11:22;;;;;;;6.63;1.65;;;12.40;92.20;;;;;;5007626;28;20022;-82
2022/02/22 10:13:48;;;;;;;8.30;1.70;;;12.40;92.60;;;;;;5012197;28;20406;-82
2022/02/22 10:16:14;;;;;;;5.47;1.55;;;12.50;92.60;;;;;;5010538;28;20387;-81
2022/02/22 10:18:50;;;;;;;5.72;1.35;;;12.50;92.20;;;;;;5011056;28;20494;-81
2022/02/22 10:21:16;;;;;;;5.30;1.38;;;12.50;92.30;;;;;;5027506;28;20014;-82
2022/02/22 10:23:43;;;;;;;5.45;1.42;;;12.40;92.50;;;;;;5021952;28;20034;-81
2022/02/22 10:26:25;;;;;;;5.82;1.75;;;12.40;92.70;;;;;;5020541;28;20030;-79
2022/02/22 10:28:51;;;;;;;4.63;1.40;;;12.40;92.20;;;;;;5010491;28;20038;-83
2022/02/22 10:31:16;;;;;;;4.55;1.00;;;12.50;92.40;;;;;;5021173;28;20045;-81
2022/02/22 10:33:44;;;;;;;6.05;1.50;;;12.50;92.50;;;;;;5021433;28;20032;-76
2022/02/22 10:36:18;;;;;;;5.40;1.50;;;12.60;92.80;;;;;;5020159;28;20052;-76
2022/02/22 10:38:44;;;;;;;7.88;1.92;;;12.70;92.70;;;;;;5018239;28;20022;-76
2022/02/22 10:41:15;;;;;;;4.90;1.52;;;12.90;92.30;;;;;;5017192;28;20033;-76
2022/02/22 10:43:58;;;;;;;3.35;1.30;;;12.90;92.20;;;;;;5012958;28;20117;-75
2022/02/22 10:46:26;;;;;;;7.15;1.50;;;13.10;92.50;;;;;;5014589;28;20056;-75
2022/02/22 10:49:03;;;;;;;4.93;1.33;;;13.20;91.90;;;;;;5010154;28;20453;-77
2022/02/22 10:51:41;;;;;;;7.95;2.97;;;13.30;91.40;;;;;;5012642;28;20022;-77
2022/02/22 10:54:08;;;;;;;9.82;3.17;;;13.30;91.30;;;;;;5013330;28;20034;-78
2022/02/22 10:56:35;;;;;;;4.00;1.60;;;13.40;91.20;;;;;;5017682;28;20037;-76
2022/02/22 10:59:04;;;;;;;5.07;1.60;;;13.40;91.10;;;;;;5008097;28;20541;-76
2022/02/22 11:01:30;;;;;;;5.85;1.40;;;13.60;91.30;;;;;;5009912;28;20029;-75
2022/02/22 11:03:56;;;;;;;5.97;1.35;;;13.70;90.90;;;;;;5011687;28;20022;-77
2022/02/22 11:06:22;;;;;;;3.35;1.30;;;13.70;89.60;;;;;;5015749;28;20032;-74
2022/02/22 11:08:53;;;;;;;4.00;1.30;;;13.90;90.50;;;;;;5032360;28;20022;-75
2022/02/22 11:11:41;;;;;;;5.30;1.33;;;13.80;88.40;;;;;;5026991;28;20021;-74
2022/02/22 11:14:10;;;;;;;4.80;1.30;;;13.70;89.40;;;;;;5033906;28;20025;-75
2022/02/22 11:16:47;;;;;;;6.00;1.30;;;13.60;89.10;;;;;;5030950;28;20054;-75
2022/02/22 11:19:15;;;;;;;3.28;1.13;;;13.60;88.80;;;;;;5022089;28;20053;-74
2022/02/22 11:21:42;;;;;;;5.18;1.25;;;13.60;89.10;;;;;;5028143;28;20022;-73
2022/02/22 11:24:09;;;;;;;4.57;1.23;;;13.60;88.80;;;;;;5024440;28;20032;-74
2022/02/22 11:27:00;;;;;;;7.10;1.40;;;13.70;89.20;;;;;;5028438;28;20021;-74
2022/02/22 11:29:27;;;;;;;6.65;0.98;;;13.60;88.40;;;;;;5018514;28;20045;-79
2022/02/22 11:32:03;;;;;;;5.88;1.27;;;13.70;89.10;;;;;;5020138;28;20419;-74
2022/02/22 11:34:40;;;;;;;4.18;1.10;;;13.70;88.70;;;;;;5012817;28;20026;-73
2022/02/22 11:37:13;;;;;;;3.65;1.05;;;13.80;87.80;;;;;;5018248;28;20045;-72
2022/02/22 11:39:54;;;;;;;5.63;1.17;;;13.90;88.60;;;;;;5008284;28;20099;-72
2022/02/22 11:42:30;;;;;;;2.67;0.93;;;13.90;87.40;;;;;;5016944;28;20580;-74
2022/02/22 11:45:04;;;;;;;4.53;1.20;;;14.00;86.50;;;;;;5016968;28;20025;-75
2022/02/22 11:47:31;;;;;;;3.05;1.15;;;14.10;86.50;;;;;;5027687;28;20030;-75
2022/02/22 11:49:58;;;;;;;5.20;1.45;;;14.10;85.70;;;;;;5029136;28;20121;-77
2022/02/22 11:52:42;;;;;;;5.13;1.40;;;14.10;86.40;;;;;;5026951;28;20053;-74
2022/02/22 11:55:12;;;;;;;4.57;1.60;;;14.20;86.40;;;;;;5028634;28;20026;-76
2022/02/22 11:57:46;;;;;;;5.13;1.77;;;14.10;84.80;;;;;;5028004;28;20457;-76
2022/02/22 12:00:13;;;;;;;5.95;1.30;;;14.10;85.20;;;;;;5018345;28;20025;-76
2022/02/22 12:02:42;;;;;;;5.38;1.45;;;14.00;84.90;;;;;;5022125;28;20033;-77
2022/02/22 12:05:28;;;;;;;6.75;1.33;;;13.90;85.10;;;;;;5028758;28;20034;-75
2022/02/22 12:07:58;;;;;;;4.65;1.15;;;13.90;85.70;;;;;;5020055;28;20031;-76
2022/02/22 12:10:24;;;;;;;3.60;1.13;;;13.90;86.00;;;;;;5023289;28;20246;-76
2022/02/22 12:12:51;;;;;;;4.68;1.10;;;13.80;85.60;;;;;;5018134;28;20040;-74
2022/02/22 12:15:16;;;;;;;4.45;1.33;;;13.80;85.80;;;;;;5025826;28;20045;-76
2022/02/22 12:17:43;;;;;;;4.60;1.25;;;13.90;85.60;;;;;;5038029;28;20022;-76
2022/02/22 12:20:09;;;;;;;4.18;1.33;;;13.80;85.50;;;;;;5031523;28;20129;-78
2022/02/22 12:22:36;;;;;;;5.30;1.30;;;13.80;86.10;;;;;;5012118;28;20142;-75
2022/02/22 12:27:57;;;;;;;5.15;1.10;;;13.80;85.60;;;;;;5115723;27;20449;-80
2022/02/22 12:30:37;;;;;;;6.32;1.48;;;13.80;85.50;;;;;;5097895;28;20079;-78
2022/02/22 12:33:04;;;;;;;3.97;1.40;;;13.90;85.50;;;;;;5107774;28;20033;-80
2022/02/22 12:35:34;;;;;;;4.95;1.30;;;13.80;85.20;;;;;;5099473;28;20032;-81
2022/02/22 12:38:01;;;;;;;4.88;1.30;;;13.80;84.70;;;;;;5102277;28;20519;-77
2022/02/22 12:40:31;;;;;;;4.22;1.58;;;13.80;84.90;;;;;;5101807;28;20024;-77
2022/02/22 12:43:07;;;;;;;5.20;1.40;;;13.80;84.80;;;;;;5104832;28;20035;-78
2022/02/22 12:45:43;;;;;;;7.38;1.40;;;13.90;84.30;;;;;;5101307;28;20066;-77
2022/02/22 12:48:10;;;;;;;4.45;1.27;;;13.90;82.90;;;;;;5101182;28;20086;-79
2022/02/22 12:50:36;;;;;;;5.88;1.42;;;14.00;83.20;;;;;;5103042;28;20062;-80